sensor_id;sensor_type;location;lat;lon;timestamp;temperature;humidity
23683;DHT22;24897;53.514;10.482;2022-10-16T00:03:43;15.30;99.90
23683;DHT22;24897;53.514;10.482;2022-10-16T00:06:28;14.20;99.90
23683;DHT22;24897;53.514;10.482;2022-10-16T00:09:13;14.60;99.90
23683;DHT22;24897;53.514;10.482;2022-10-16T00:11:57;14.60;99.90
23683;DHT22;24897;53.514;10.482;2022-10-16T00:14:41;14.80;99.90
23683;DHT22;24897;53.514;10.482;2022-10-16T00:28:27;14.70;99.90
23683;DHT22;24897;53.514;10.482;2022-10-16T00:31:12;14.30;99.90
23683;DHT22;24897;53.514;10.482;2022-10-16T00:42:15;15.00;99.90
23683;DHT22;24897;53.514;10.482;2022-10-16T00:47:45;15.10;99.90
23683;DHT22;24897;53.514;10.482;2022-10-16T00:50:34;14.20;99.90
23683;DHT22;24897;53.514;10.482;2022-10-16T00:53:18;14.60;99.90
23683;DHT22;24897;53.514;10.482;2022-10-16T00:56:03;14.50;99.90
23683;DHT22;24897;53.514;10.482;2022-10-16T01:04:17;14.30;99.90
23683;DHT22;24897;53.514;10.482;2022-10-16T01:10:03;14.20;99.90
23683;DHT22;24897;53.514;10.482;2022-10-16T01:15:47;14.20;99.90
23683;DHT22;24897;53.514;10.482;2022-10-16T01:18:41;14.10;99.90
23683;DHT22;24897;53.514;10.482;2022-10-16T01:21:36;14.50;99.90
23683;DHT22;24897;53.514;10.482;2022-10-16T01:24:45;14.10;99.90
23683;DHT22;24897;53.514;10.482;2022-10-16T01:27:33;13.00;99.90
23683;DHT22;24897;53.514;10.482;2022-10-16T01:30:28;13.60;99.90
23683;DHT22;24897;53.514;10.482;2022-10-16T01:33:24;14.40;99.90
23683;DHT22;24897;53.514;10.482;2022-10-16T01:36:22;14.00;99.90
23683;DHT22;24897;53.514;10.482;2022-10-16T01:39:10;14.00;99.90
23683;DHT22;24897;53.514;10.482;2022-10-16T01:42:02;14.00;99.90
23683;DHT22;24897;53.514;10.482;2022-10-16T01:44:49;14.60;99.90
23683;DHT22;24897;53.514;10.482;2022-10-16T01:47:35;13.90;99.90
23683;DHT22;24897;53.514;10.482;2022-10-16T01:50:20;14.00;99.90
23683;DHT22;24897;53.514;10.482;2022-10-16T01:53:08;14.50;99.90
23683;DHT22;24897;53.514;10.482;2022-10-16T01:55:55;13.70;99.90
23683;DHT22;24897;53.514;10.482;2022-10-16T01:58:51;13.90;99.90
23683;DHT22;24897;53.514;10.482;2022-10-16T02:01:38;13.70;99.90
23683;DHT22;24897;53.514;10.482;2022-10-16T02:04:41;13.80;99.90
23683;DHT22;24897;53.514;10.482;2022-10-16T02:07:26;14.20;99.90
23683;DHT22;24897;53.514;10.482;2022-10-16T02:13:12;13.90;99.90
23683;DHT22;24897;53.514;10.482;2022-10-16T02:15:57;13.70;99.90
23683;DHT22;24897;53.514;10.482;2022-10-16T02:18:42;13.50;99.90
23683;DHT22;24897;53.514;10.482;2022-10-16T02:24:38;13.80;99.90
23683;DHT22;24897;53.514;10.482;2022-10-16T02:33:15;13.50;99.90
23683;DHT22;24897;53.514;10.482;2022-10-16T02:36:00;13.70;99.90
23683;DHT22;24897;53.514;10.482;2022-10-16T02:38:44;13.80;99.90
23683;DHT22;24897;53.514;10.482;2022-10-16T02:41:30;14.00;99.90
23683;DHT22;24897;53.514;10.482;2022-10-16T02:44:15;12.60;99.90
23683;DHT22;24897;53.514;10.482;2022-10-16T02:46:59;13.80;99.90
23683;DHT22;24897;53.514;10.482;2022-10-16T02:49:43;12.80;99.90
23683;DHT22;24897;53.514;10.482;2022-10-16T02:52:28;13.70;99.90
23683;DHT22;24897;53.514;10.482;2022-10-16T02:57:59;14.00;99.90
23683;DHT22;24897;53.514;10.482;2022-10-16T03:03:28;13.70;99.90
23683;DHT22;24897;53.514;10.482;2022-10-16T03:06:12;13.60;99.90
23683;DHT22;24897;53.514;10.482;2022-10-16T03:11:41;13.30;99.90
23683;DHT22;24897;53.514;10.482;2022-10-16T03:14:25;14.10;99.90
23683;DHT22;24897;53.514;10.482;2022-10-16T03:17:09;12.60;99.90
23683;DHT22;24897;53.514;10.482;2022-10-16T03:19:53;13.40;99.90
23683;DHT22;24897;53.514;10.482;2022-10-16T03:22:37;14.80;99.90
23683;DHT22;24897;53.514;10.482;2022-10-16T03:36:19;13.00;99.90
23683;DHT22;24897;53.514;10.482;2022-10-16T03:39:03;13.00;99.90
23683;DHT22;24897;53.514;10.482;2022-10-16T03:41:47;13.40;99.90
23683;DHT22;24897;53.514;10.482;2022-10-16T03:44:31;13.90;99.90
23683;DHT22;24897;53.514;10.482;2022-10-16T03:50:05;13.60;99.90
23683;DHT22;24897;53.514;10.482;2022-10-16T03:58:19;12.90;99.90
23683;DHT22;24897;53.514;10.482;2022-10-16T04:03:48;12.90;99.90
23683;DHT22;24897;53.514;10.482;2022-10-16T04:09:17;13.10;99.90
23683;DHT22;24897;53.514;10.482;2022-10-16T04:12:01;13.20;99.90
23683;DHT22;24897;53.514;10.482;2022-10-16T04:14:45;13.10;99.90
23683;DHT22;24897;53.514;10.482;2022-10-16T04:17:29;13.10;99.90
23683;DHT22;24897;53.514;10.482;2022-10-16T04:25:42;12.80;99.90
23683;DHT22;24897;53.514;10.482;2022-10-16T04:28:27;12.90;99.90
23683;DHT22;24897;53.514;10.482;2022-10-16T04:31:11;13.00;99.90
23683;DHT22;24897;53.514;10.482;2022-10-16T04:36:40;13.10;99.90
23683;DHT22;24897;53.514;10.482;2022-10-16T04:42:09;12.60;99.90
23683;DHT22;24897;53.514;10.482;2022-10-16T04:53:06;12.60;99.90
23683;DHT22;24897;53.514;10.482;2022-10-16T04:58:35;12.30;99.90
23683;DHT22;24897;53.514;10.482;2022-10-16T05:01:20;12.50;99.90
23683;DHT22;24897;53.514;10.482;2022-10-16T05:04:04;12.60;99.90
23683;DHT22;24897;53.514;10.482;2022-10-16T05:12:17;13.20;99.90
23683;DHT22;24897;53.514;10.482;2022-10-16T05:15:02;12.70;99.90
23683;DHT22;24897;53.514;10.482;2022-10-16T05:20:31;12.90;99.90
23683;DHT22;24897;53.514;10.482;2022-10-16T05:26:00;13.90;99.90
23683;DHT22;24897;53.514;10.482;2022-10-16T05:28:44;13.00;99.90
23683;DHT22;24897;53.514;10.482;2022-10-16T05:31:29;12.60;99.90
23683;DHT22;24897;53.514;10.482;2022-10-16T05:42:27;12.30;99.90
23683;DHT22;24897;53.514;10.482;2022-10-16T05:45:11;11.50;99.90
23683;DHT22;24897;53.514;10.482;2022-10-16T05:47:56;12.80;99.90
23683;DHT22;24897;53.514;10.482;2022-10-16T05:56:10;12.70;99.90
23683;DHT22;24897;53.514;10.482;2022-10-16T05:58:56;12.40;99.90
23683;DHT22;24897;53.514;10.482;2022-10-16T06:01:40;12.60;99.90
23683;DHT22;24897;53.514;10.482;2022-10-16T06:04:24;13.10;99.90
23683;DHT22;24897;53.514;10.482;2022-10-16T06:15:22;12.30;99.90
23683;DHT22;24897;53.514;10.482;2022-10-16T06:18:06;12.60;99.90
23683;DHT22;24897;53.514;10.482;2022-10-16T06:20:50;13.30;99.90
23683;DHT22;24897;53.514;10.482;2022-10-16T06:23:34;12.60;99.90
23683;DHT22;24897;53.514;10.482;2022-10-16T06:26:20;12.10;99.90
23683;DHT22;24897;53.514;10.482;2022-10-16T06:31:50;14.10;99.90
23683;DHT22;24897;53.514;10.482;2022-10-16T06:34:34;13.20;99.90
23683;DHT22;24897;53.514;10.482;2022-10-16T06:37:18;13.20;99.90
23683;DHT22;24897;53.514;10.482;2022-10-16T06:40:02;12.90;99.90
23683;DHT22;24897;53.514;10.482;2022-10-16T06:42:48;13.20;99.90
23683;DHT22;24897;53.514;10.482;2022-10-16T06:45:32;13.10;99.90
23683;DHT22;24897;53.514;10.482;2022-10-16T06:48:16;13.20;99.90
23683;DHT22;24897;53.514;10.482;2022-10-16T06:53:53;13.20;99.90
23683;DHT22;24897;53.514;10.482;2022-10-16T06:56:40;13.10;99.90
23683;DHT22;24897;53.514;10.482;2022-10-16T06:59:24;13.60;99.90
23683;DHT22;24897;53.514;10.482;2022-10-16T07:02:08;13.10;99.90
23683;DHT22;24897;53.514;10.482;2022-10-16T07:04:53;13.00;99.90
23683;DHT22;24897;53.514;10.482;2022-10-16T07:07:37;12.90;99.90
23683;DHT22;24897;53.514;10.482;2022-10-16T07:10:21;13.20;99.90
23683;DHT22;24897;53.514;10.482;2022-10-16T07:13:07;13.10;99.90
23683;DHT22;24897;53.514;10.482;2022-10-16T07:15:52;13.00;99.90
23683;DHT22;24897;53.514;10.482;2022-10-16T07:18:36;14.10;99.90
23683;DHT22;24897;53.514;10.482;2022-10-16T07:21:22;13.20;99.90
23683;DHT22;24897;53.514;10.482;2022-10-16T07:24:11;13.20;99.90
23683;DHT22;24897;53.514;10.482;2022-10-16T07:26:55;13.40;99.90
23683;DHT22;24897;53.514;10.482;2022-10-16T07:29:39;13.50;99.90
23683;DHT22;24897;53.514;10.482;2022-10-16T07:32:23;13.60;99.90
23683;DHT22;24897;53.514;10.482;2022-10-16T07:35:09;13.70;99.90
23683;DHT22;24897;53.514;10.482;2022-10-16T07:37:53;13.90;99.90
23683;DHT22;24897;53.514;10.482;2022-10-16T07:40:37;14.00;99.90
23683;DHT22;24897;53.514;10.482;2022-10-16T07:43:21;14.00;99.90
23683;DHT22;24897;53.514;10.482;2022-10-16T07:46:05;14.10;99.90
23683;DHT22;24897;53.514;10.482;2022-10-16T07:48:50;14.30;99.90
23683;DHT22;24897;53.514;10.482;2022-10-16T07:51:34;14.40;99.90
23683;DHT22;24897;53.514;10.482;2022-10-16T07:54:18;14.50;99.90
23683;DHT22;24897;53.514;10.482;2022-10-16T07:57:02;14.60;99.90
23683;DHT22;24897;53.514;10.482;2022-10-16T07:59:46;15.00;99.90
23683;DHT22;24897;53.514;10.482;2022-10-16T08:02:31;15.40;99.90
23683;DHT22;24897;53.514;10.482;2022-10-16T08:05:15;15.10;99.90
23683;DHT22;24897;53.514;10.482;2022-10-16T08:08:02;15.10;99.90
23683;DHT22;24897;53.514;10.482;2022-10-16T08:10:46;15.10;99.90
23683;DHT22;24897;53.514;10.482;2022-10-16T08:13:32;15.50;99.90
23683;DHT22;24897;53.514;10.482;2022-10-16T08:16:16;15.40;99.90
23683;DHT22;24897;53.514;10.482;2022-10-16T08:19:01;15.40;99.90
23683;DHT22;24897;53.514;10.482;2022-10-16T08:21:47;15.40;99.90
23683;DHT22;24897;53.514;10.482;2022-10-16T08:24:31;15.50;99.90
23683;DHT22;24897;53.514;10.482;2022-10-16T08:27:16;15.70;99.90
23683;DHT22;24897;53.514;10.482;2022-10-16T08:30:00;15.90;99.90
23683;DHT22;24897;53.514;10.482;2022-10-16T08:32:44;15.40;99.90
23683;DHT22;24897;53.514;10.482;2022-10-16T08:35:28;15.70;99.90
23683;DHT22;24897;53.514;10.482;2022-10-16T08:38:13;15.80;99.90
23683;DHT22;24897;53.514;10.482;2022-10-16T08:41:19;15.90;99.90
23683;DHT22;24897;53.514;10.482;2022-10-16T08:47:18;16.10;99.90
23683;DHT22;24897;53.514;10.482;2022-10-16T08:50:13;16.10;99.90
23683;DHT22;24897;53.514;10.482;2022-10-16T08:52:58;17.10;99.90
23683;DHT22;24897;53.514;10.482;2022-10-16T08:55:53;16.90;99.90
23683;DHT22;24897;53.514;10.482;2022-10-16T08:58:37;17.00;99.90
23683;DHT22;24897;53.514;10.482;2022-10-16T09:01:22;17.40;99.90
23683;DHT22;24897;53.514;10.482;2022-10-16T09:11:29;17.90;99.90
23683;DHT22;24897;53.514;10.482;2022-10-16T09:14:48;17.60;99.90
23683;DHT22;24897;53.514;10.482;2022-10-16T09:17:32;17.90;99.90
23683;DHT22;24897;53.514;10.482;2022-10-16T09:23:37;18.20;99.90
23683;DHT22;24897;53.514;10.482;2022-10-16T09:26:21;17.60;99.90
23683;DHT22;24897;53.514;10.482;2022-10-16T09:29:06;18.40;99.90
23683;DHT22;24897;53.514;10.482;2022-10-16T09:31:51;18.60;99.90
23683;DHT22;24897;53.514;10.482;2022-10-16T09:34:39;18.90;99.90
23683;DHT22;24897;53.514;10.482;2022-10-16T09:37:26;19.10;99.90
23683;DHT22;24897;53.514;10.482;2022-10-16T09:40:34;19.30;99.90
23683;DHT22;24897;53.514;10.482;2022-10-16T09:43:28;19.60;99.90
23683;DHT22;24897;53.514;10.482;2022-10-16T09:46:29;19.00;99.90
23683;DHT22;24897;53.514;10.482;2022-10-16T09:49:22;19.10;99.90
23683;DHT22;24897;53.514;10.482;2022-10-16T09:52:15;18.90;99.90
23683;DHT22;24897;53.514;10.482;2022-10-16T09:55:02;18.80;99.90
23683;DHT22;24897;53.514;10.482;2022-10-16T09:57:53;19.20;99.90
23683;DHT22;24897;53.514;10.482;2022-10-16T10:00:41;19.00;99.90
23683;DHT22;24897;53.514;10.482;2022-10-16T10:03:36;19.20;99.90
23683;DHT22;24897;53.514;10.482;2022-10-16T10:06:24;19.20;99.90
23683;DHT22;24897;53.514;10.482;2022-10-16T10:12:21;19.10;99.90
23683;DHT22;24897;53.514;10.482;2022-10-16T10:15:11;19.70;99.90
23683;DHT22;24897;53.514;10.482;2022-10-16T10:17:57;19.80;99.90
23683;DHT22;24897;53.514;10.482;2022-10-16T10:20:42;19.60;99.90
23683;DHT22;24897;53.514;10.482;2022-10-16T10:23:27;19.80;99.90
23683;DHT22;24897;53.514;10.482;2022-10-16T10:26:18;19.80;99.90
23683;DHT22;24897;53.514;10.482;2022-10-16T10:32:11;20.40;99.90
23683;DHT22;24897;53.514;10.482;2022-10-16T10:37:58;20.20;99.90
23683;DHT22;24897;53.514;10.482;2022-10-16T10:40:56;20.60;99.90
23683;DHT22;24897;53.514;10.482;2022-10-16T10:50:30;20.10;99.90
23683;DHT22;24897;53.514;10.482;2022-10-16T10:54:02;20.20;99.90
23683;DHT22;24897;53.514;10.482;2022-10-16T10:57:10;20.30;99.90
23683;DHT22;24897;53.514;10.482;2022-10-16T11:00:26;20.30;99.90
23683;DHT22;24897;53.514;10.482;2022-10-16T11:06:49;19.80;99.90
23683;DHT22;24897;53.514;10.482;2022-10-16T11:09:41;19.80;99.90
23683;DHT22;24897;53.514;10.482;2022-10-16T11:12:31;19.80;99.90
23683;DHT22;24897;53.514;10.482;2022-10-16T11:15:38;19.80;99.90
23683;DHT22;24897;53.514;10.482;2022-10-16T11:18:30;19.70;99.90
23683;DHT22;24897;53.514;10.482;2022-10-16T11:21:19;19.80;99.90
23683;DHT22;24897;53.514;10.482;2022-10-16T11:24:19;19.90;99.90
23683;DHT22;24897;53.514;10.482;2022-10-16T11:27:08;20.40;99.90
23683;DHT22;24897;53.514;10.482;2022-10-16T11:29:57;20.40;99.90
23683;DHT22;24897;53.514;10.482;2022-10-16T11:35:42;20.30;99.90
23683;DHT22;24897;53.514;10.482;2022-10-16T11:38:45;20.10;99.90
23683;DHT22;24897;53.514;10.482;2022-10-16T11:41:41;20.20;99.90
23683;DHT22;24897;53.514;10.482;2022-10-16T11:44:59;20.20;99.90
23683;DHT22;24897;53.514;10.482;2022-10-16T11:47:51;20.20;99.90
23683;DHT22;24897;53.514;10.482;2022-10-16T11:50:52;20.20;99.90
23683;DHT22;24897;53.514;10.482;2022-10-16T11:56:32;20.20;99.90
23683;DHT22;24897;53.514;10.482;2022-10-16T12:02:35;20.20;99.90
23683;DHT22;24897;53.514;10.482;2022-10-16T12:08:30;21.50;99.90
23683;DHT22;24897;53.514;10.482;2022-10-16T12:11:36;21.00;99.90
23683;DHT22;24897;53.514;10.482;2022-10-16T12:14:37;21.50;99.90
23683;DHT22;24897;53.514;10.482;2022-10-16T12:17:36;20.00;99.90
23683;DHT22;24897;53.514;10.482;2022-10-16T12:20:24;20.30;99.90
23683;DHT22;24897;53.514;10.482;2022-10-16T12:23:20;20.80;99.90
23683;DHT22;24897;53.514;10.482;2022-10-16T12:28:50;21.30;99.90
23683;DHT22;24897;53.514;10.482;2022-10-16T12:31:47;20.90;99.90
23683;DHT22;24897;53.514;10.482;2022-10-16T12:34:44;20.40;99.90
23683;DHT22;24897;53.514;10.482;2022-10-16T12:37:36;19.80;99.90
23683;DHT22;24897;53.514;10.482;2022-10-16T12:40:32;19.70;99.90
23683;DHT22;24897;53.514;10.482;2022-10-16T12:43:34;20.00;99.90
23683;DHT22;24897;53.514;10.482;2022-10-16T12:46:21;20.50;99.90
23683;DHT22;24897;53.514;10.482;2022-10-16T12:51:56;19.70;99.90
23683;DHT22;24897;53.514;10.482;2022-10-16T12:54:40;19.40;99.90
23683;DHT22;24897;53.514;10.482;2022-10-16T12:57:50;19.60;99.90
23683;DHT22;24897;53.514;10.482;2022-10-16T13:10:14;20.60;99.90
23683;DHT22;24897;53.514;10.482;2022-10-16T13:25:40;21.10;99.90
23683;DHT22;24897;53.514;10.482;2022-10-16T13:28:30;20.70;99.90
23683;DHT22;24897;53.514;10.482;2022-10-16T13:31:22;20.60;99.90
23683;DHT22;24897;53.514;10.482;2022-10-16T13:34:14;20.70;99.90
23683;DHT22;24897;53.514;10.482;2022-10-16T13:39:44;19.90;99.90
23683;DHT22;24897;53.514;10.482;2022-10-16T13:42:29;20.80;99.90
23683;DHT22;24897;53.514;10.482;2022-10-16T13:45:25;20.20;99.90
23683;DHT22;24897;53.514;10.482;2022-10-16T13:51:05;19.90;99.90
23683;DHT22;24897;53.514;10.482;2022-10-16T13:53:50;19.60;99.90
23683;DHT22;24897;53.514;10.482;2022-10-16T13:56:34;20.30;99.90
23683;DHT22;24897;53.514;10.482;2022-10-16T13:59:25;19.50;99.90
23683;DHT22;24897;53.514;10.482;2022-10-16T14:05:10;19.70;99.90
23683;DHT22;24897;53.514;10.482;2022-10-16T14:07:58;19.90;99.90
23683;DHT22;24897;53.514;10.482;2022-10-16T14:10:46;20.00;99.90
23683;DHT22;24897;53.514;10.482;2022-10-16T14:13:37;19.80;99.90
23683;DHT22;24897;53.514;10.482;2022-10-16T14:16:24;19.20;99.90
23683;DHT22;24897;53.514;10.482;2022-10-16T14:19:26;19.60;99.90
23683;DHT22;24897;53.514;10.482;2022-10-16T14:22:35;19.00;99.90
23683;DHT22;24897;53.514;10.482;2022-10-16T14:28:14;19.00;99.90
23683;DHT22;24897;53.514;10.482;2022-10-16T14:31:01;19.00;99.90
23683;DHT22;24897;53.514;10.482;2022-10-16T14:33:46;19.30;99.90
23683;DHT22;24897;53.514;10.482;2022-10-16T14:36:30;19.00;99.90
23683;DHT22;24897;53.514;10.482;2022-10-16T14:39:21;19.00;99.90
23683;DHT22;24897;53.514;10.482;2022-10-16T14:42:14;18.90;99.90
23683;DHT22;24897;53.514;10.482;2022-10-16T14:47:52;18.90;99.90
23683;DHT22;24897;53.514;10.482;2022-10-16T14:50:38;18.90;99.90
23683;DHT22;24897;53.514;10.482;2022-10-16T14:53:22;19.00;99.90
23683;DHT22;24897;53.514;10.482;2022-10-16T14:56:18;18.80;99.90
23683;DHT22;24897;53.514;10.482;2022-10-16T14:59:03;18.50;99.90
23683;DHT22;24897;53.514;10.482;2022-10-16T15:04:33;19.10;99.90
23683;DHT22;24897;53.514;10.482;2022-10-16T15:07:17;18.70;99.90
23683;DHT22;24897;53.514;10.482;2022-10-16T15:10:01;18.60;99.90
23683;DHT22;24897;53.514;10.482;2022-10-16T15:15:38;18.70;99.90
23683;DHT22;24897;53.514;10.482;2022-10-16T15:18:24;18.20;99.90
23683;DHT22;24897;53.514;10.482;2022-10-16T15:21:17;18.10;99.90
23683;DHT22;24897;53.514;10.482;2022-10-16T15:24:09;18.50;99.90
23683;DHT22;24897;53.514;10.482;2022-10-16T15:26:55;18.40;99.90
23683;DHT22;24897;53.514;10.482;2022-10-16T15:29:39;18.00;99.90
23683;DHT22;24897;53.514;10.482;2022-10-16T15:32:23;17.10;99.90
23683;DHT22;24897;53.514;10.482;2022-10-16T15:35:10;17.60;99.90
23683;DHT22;24897;53.514;10.482;2022-10-16T15:37:54;17.20;99.90
23683;DHT22;24897;53.514;10.482;2022-10-16T15:40:40;18.20;99.90
23683;DHT22;24897;53.514;10.482;2022-10-16T15:43:24;17.70;99.90
23683;DHT22;24897;53.514;10.482;2022-10-16T15:46:11;17.60;99.90
23683;DHT22;24897;53.514;10.482;2022-10-16T15:48:58;17.60;99.90
23683;DHT22;24897;53.514;10.482;2022-10-16T15:51:42;17.60;99.90
23683;DHT22;24897;53.514;10.482;2022-10-16T15:54:27;17.40;99.90
23683;DHT22;24897;53.514;10.482;2022-10-16T15:57:11;17.40;99.90
23683;DHT22;24897;53.514;10.482;2022-10-16T15:59:55;17.30;99.90
23683;DHT22;24897;53.514;10.482;2022-10-16T16:02:40;17.20;99.90
23683;DHT22;24897;53.514;10.482;2022-10-16T16:05:24;17.10;99.90
23683;DHT22;24897;53.514;10.482;2022-10-16T16:08:09;17.40;99.90
23683;DHT22;24897;53.514;10.482;2022-10-16T16:11:04;16.80;99.90
23683;DHT22;24897;53.514;10.482;2022-10-16T16:19:21;16.70;99.90
23683;DHT22;24897;53.514;10.482;2022-10-16T16:22:05;16.60;99.90
23683;DHT22;24897;53.514;10.482;2022-10-16T16:24:50;17.00;99.90
23683;DHT22;24897;53.514;10.482;2022-10-16T16:30:19;16.40;99.90
23683;DHT22;24897;53.514;10.482;2022-10-16T16:33:04;16.00;99.90
23683;DHT22;24897;53.514;10.482;2022-10-16T16:35:48;16.30;99.90
23683;DHT22;24897;53.514;10.482;2022-10-16T16:38:33;16.30;99.90
23683;DHT22;24897;53.514;10.482;2022-10-16T16:41:20;16.20;99.90
23683;DHT22;24897;53.514;10.482;2022-10-16T16:44:06;16.40;99.90
23683;DHT22;24897;53.514;10.482;2022-10-16T16:49:36;16.10;99.90
23683;DHT22;24897;53.514;10.482;2022-10-16T16:52:21;16.00;99.90
23683;DHT22;24897;53.514;10.482;2022-10-16T16:55:06;16.20;99.90
23683;DHT22;24897;53.514;10.482;2022-10-16T16:57:51;15.50;99.90
23683;DHT22;24897;53.514;10.482;2022-10-16T17:00:35;16.30;99.90
23683;DHT22;24897;53.514;10.482;2022-10-16T17:03:19;15.90;99.90
23683;DHT22;24897;53.514;10.482;2022-10-16T17:06:05;15.70;99.90
23683;DHT22;24897;53.514;10.482;2022-10-16T17:08:50;15.00;99.90
23683;DHT22;24897;53.514;10.482;2022-10-16T17:11:35;15.50;99.90
23683;DHT22;24897;53.514;10.482;2022-10-16T17:17:03;15.90;99.90
23683;DHT22;24897;53.514;10.482;2022-10-16T17:19:51;14.50;99.90
23683;DHT22;24897;53.514;10.482;2022-10-16T17:22:35;15.60;99.90
23683;DHT22;24897;53.514;10.482;2022-10-16T17:25:20;15.20;99.90
23683;DHT22;24897;53.514;10.482;2022-10-16T17:28:04;15.60;99.90
23683;DHT22;24897;53.514;10.482;2022-10-16T17:30:48;15.00;99.90
23683;DHT22;24897;53.514;10.482;2022-10-16T17:33:32;15.10;99.90
23683;DHT22;24897;53.514;10.482;2022-10-16T17:36:18;15.00;99.90
23683;DHT22;24897;53.514;10.482;2022-10-16T17:39:07;14.80;99.90
23683;DHT22;24897;53.514;10.482;2022-10-16T17:44:36;14.40;99.90
23683;DHT22;24897;53.514;10.482;2022-10-16T17:50:05;14.30;99.90
23683;DHT22;24897;53.514;10.482;2022-10-16T17:55:39;14.50;99.90
23683;DHT22;24897;53.514;10.482;2022-10-16T17:58:24;14.50;99.90
23683;DHT22;24897;53.514;10.482;2022-10-16T18:04:03;14.20;99.90
23683;DHT22;24897;53.514;10.482;2022-10-16T18:06:48;14.20;99.90
23683;DHT22;24897;53.514;10.482;2022-10-16T18:12:16;13.80;99.90
23683;DHT22;24897;53.514;10.482;2022-10-16T18:15:00;14.50;99.90
23683;DHT22;24897;53.514;10.482;2022-10-16T18:23:14;13.70;99.90
23683;DHT22;24897;53.514;10.482;2022-10-16T18:25:58;14.90;99.90
23683;DHT22;24897;53.514;10.482;2022-10-16T18:28:42;14.00;99.90
23683;DHT22;24897;53.514;10.482;2022-10-16T18:31:27;13.40;99.90
23683;DHT22;24897;53.514;10.482;2022-10-16T18:34:11;13.40;99.90
23683;DHT22;24897;53.514;10.482;2022-10-16T18:36:55;13.40;99.90
23683;DHT22;24897;53.514;10.482;2022-10-16T18:39:40;12.20;99.90
23683;DHT22;24897;53.514;10.482;2022-10-16T18:42:24;13.80;99.90
23683;DHT22;24897;53.514;10.482;2022-10-16T18:47:53;13.60;99.90
23683;DHT22;24897;53.514;10.482;2022-10-16T18:56:06;12.40;99.90
23683;DHT22;24897;53.514;10.482;2022-10-16T18:58:51;13.00;99.90
23683;DHT22;24897;53.514;10.482;2022-10-16T19:01:37;12.80;99.90
23683;DHT22;24897;53.514;10.482;2022-10-16T19:04:21;12.90;99.90
23683;DHT22;24897;53.514;10.482;2022-10-16T19:07:07;12.90;99.90
23683;DHT22;24897;53.514;10.482;2022-10-16T19:09:51;13.20;99.90
23683;DHT22;24897;53.514;10.482;2022-10-16T19:18:05;12.80;99.90
23683;DHT22;24897;53.514;10.482;2022-10-16T19:20:49;13.10;99.90
23683;DHT22;24897;53.514;10.482;2022-10-16T19:23:34;11.50;99.90
23683;DHT22;24897;53.514;10.482;2022-10-16T19:26:19;12.60;99.90
23683;DHT22;24897;53.514;10.482;2022-10-16T19:29:04;12.80;99.90
23683;DHT22;24897;53.514;10.482;2022-10-16T19:31:50;12.70;99.90
23683;DHT22;24897;53.514;10.482;2022-10-16T19:34:35;12.20;99.90
23683;DHT22;24897;53.514;10.482;2022-10-16T19:37:20;12.80;99.90
23683;DHT22;24897;53.514;10.482;2022-10-16T19:40:09;12.80;99.90
23683;DHT22;24897;53.514;10.482;2022-10-16T19:42:53;12.20;99.90
23683;DHT22;24897;53.514;10.482;2022-10-16T19:45:38;12.50;99.90
23683;DHT22;24897;53.514;10.482;2022-10-16T19:51:16;12.50;99.90
23683;DHT22;24897;53.514;10.482;2022-10-16T19:54:04;11.40;99.90
23683;DHT22;24897;53.514;10.482;2022-10-16T19:56:48;13.40;99.90
23683;DHT22;24897;53.514;10.482;2022-10-16T19:59:32;12.10;99.90
23683;DHT22;24897;53.514;10.482;2022-10-16T20:02:16;12.30;99.90
23683;DHT22;24897;53.514;10.482;2022-10-16T20:05:00;12.50;99.90
23683;DHT22;24897;53.514;10.482;2022-10-16T20:10:29;12.00;99.90
23683;DHT22;24897;53.514;10.482;2022-10-16T20:13:13;12.00;99.90
23683;DHT22;24897;53.514;10.482;2022-10-16T20:15:57;12.20;99.90
23683;DHT22;24897;53.514;10.482;2022-10-16T20:18:42;12.20;99.90
23683;DHT22;24897;53.514;10.482;2022-10-16T20:21:29;11.90;99.90
23683;DHT22;24897;53.514;10.482;2022-10-16T20:24:13;12.00;99.90
23683;DHT22;24897;53.514;10.482;2022-10-16T20:26:58;12.20;99.90
23683;DHT22;24897;53.514;10.482;2022-10-16T20:35:13;11.90;99.90
23683;DHT22;24897;53.514;10.482;2022-10-16T20:40:44;12.10;99.90
23683;DHT22;24897;53.514;10.482;2022-10-16T20:46:18;12.20;99.90
23683;DHT22;24897;53.514;10.482;2022-10-16T20:51:47;12.20;99.90
23683;DHT22;24897;53.514;10.482;2022-10-16T20:57:17;12.20;99.90
23683;DHT22;24897;53.514;10.482;2022-10-16T21:00:03;12.10;99.90
23683;DHT22;24897;53.514;10.482;2022-10-16T21:02:51;12.50;99.90
23683;DHT22;24897;53.514;10.482;2022-10-16T21:05:42;12.40;99.90
23683;DHT22;24897;53.514;10.482;2022-10-16T21:11:17;12.20;99.90
23683;DHT22;24897;53.514;10.482;2022-10-16T21:14:03;12.30;99.90
23683;DHT22;24897;53.514;10.482;2022-10-16T21:16:48;12.20;99.90
23683;DHT22;24897;53.514;10.482;2022-10-16T21:19:32;12.20;99.90
23683;DHT22;24897;53.514;10.482;2022-10-16T21:22:16;11.50;99.90
23683;DHT22;24897;53.514;10.482;2022-10-16T21:25:00;12.30;99.90
23683;DHT22;24897;53.514;10.482;2022-10-16T21:27:44;12.10;99.90
23683;DHT22;24897;53.514;10.482;2022-10-16T21:35:58;12.10;99.90
23683;DHT22;24897;53.514;10.482;2022-10-16T21:38:44;12.10;99.90
23683;DHT22;24897;53.514;10.482;2022-10-16T21:41:29;12.10;99.90
23683;DHT22;24897;53.514;10.482;2022-10-16T21:44:15;12.10;99.90
23683;DHT22;24897;53.514;10.482;2022-10-16T21:46:59;12.10;99.90
23683;DHT22;24897;53.514;10.482;2022-10-16T21:49:43;12.00;99.90
23683;DHT22;24897;53.514;10.482;2022-10-16T21:52:27;12.00;99.90
23683;DHT22;24897;53.514;10.482;2022-10-16T21:55:11;11.90;99.90
23683;DHT22;24897;53.514;10.482;2022-10-16T21:57:56;11.90;99.90
23683;DHT22;24897;53.514;10.482;2022-10-16T22:00:40;11.90;99.90
23683;DHT22;24897;53.514;10.482;2022-10-16T22:03:24;11.80;99.90
23683;DHT22;24897;53.514;10.482;2022-10-16T22:06:10;11.80;99.90
23683;DHT22;24897;53.514;10.482;2022-10-16T22:08:57;11.90;99.90
23683;DHT22;24897;53.514;10.482;2022-10-16T22:11:43;11.50;99.90
23683;DHT22;24897;53.514;10.482;2022-10-16T22:17:12;11.80;99.90
23683;DHT22;24897;53.514;10.482;2022-10-16T22:19:57;11.80;99.90
23683;DHT22;24897;53.514;10.482;2022-10-16T22:22:41;11.80;99.90
23683;DHT22;24897;53.514;10.482;2022-10-16T22:25:25;12.20;99.90
23683;DHT22;24897;53.514;10.482;2022-10-16T22:28:10;12.40;99.90
23683;DHT22;24897;53.514;10.482;2022-10-16T22:30:54;12.00;99.90
23683;DHT22;24897;53.514;10.482;2022-10-16T22:33:39;12.10;99.90